createdAt,value
2019-03-29T00:01:25.237Z,99.90
2019-03-29T00:03:53.697Z,99.90
2019-03-29T00:06:22.135Z,99.90
2019-03-29T00:08:50.573Z,99.90
2019-03-29T00:11:19.297Z,99.90
2019-03-29T00:13:47.735Z,99.90
2019-03-29T00:16:16.186Z,99.90
2019-03-29T00:18:44.641Z,99.90
2019-03-29T00:21:13.334Z,99.90
2019-03-29T00:23:42.030Z,99.90
2019-03-29T00:26:10.461Z,99.90
2019-03-29T00:28:38.932Z,99.90
2019-03-29T00:31:07.636Z,99.90
2019-03-29T00:33:36.142Z,99.90
2019-03-29T00:36:05.072Z,99.90
2019-03-29T00:38:33.520Z,99.90
2019-03-29T00:41:02.242Z,99.90
2019-03-29T00:43:30.669Z,99.90
2019-03-29T00:45:59.448Z,99.90
2019-03-29T00:48:27.885Z,99.90
2019-03-29T00:50:56.326Z,99.90
2019-03-29T00:53:24.761Z,99.90
2019-03-29T00:55:57.210Z,99.90
2019-03-29T00:58:25.645Z,99.90
2019-03-29T01:00:54.078Z,99.90
2019-03-29T01:03:22.528Z,99.90
2019-03-29T01:05:51.216Z,99.90
2019-03-29T01:08:19.912Z,99.90
2019-03-29T01:10:48.888Z,99.90
2019-03-29T01:13:17.710Z,99.90
2019-03-29T01:15:46.140Z,99.90
2019-03-29T01:18:14.610Z,99.90
2019-03-29T01:20:43.045Z,99.90
2019-03-29T01:23:11.804Z,99.90
2019-03-29T01:25:40.269Z,99.90
2019-03-29T01:28:09.104Z,99.90
2019-03-29T01:30:37.797Z,99.90
2019-03-29T01:33:06.241Z,99.90
2019-03-29T01:35:35.388Z,99.90
2019-03-29T01:38:04.648Z,99.90
2019-03-29T01:40:35.071Z,99.90
2019-03-29T01:43:03.356Z,99.90
2019-03-29T01:45:31.799Z,99.90
2019-03-29T01:48:00.489Z,99.90
2019-03-29T01:50:28.942Z,99.90
2019-03-29T01:52:57.628Z,99.90
2019-03-29T01:55:26.352Z,99.90
2019-03-29T01:57:54.789Z,99.90
2019-03-29T02:00:33.767Z,99.90
2019-03-29T02:03:02.276Z,99.90
2019-03-29T02:05:31.042Z,99.90
2019-03-29T02:07:59.530Z,99.90
2019-03-29T02:10:30.937Z,99.90
2019-03-29T02:12:59.866Z,99.90
2019-03-29T02:15:40.436Z,99.90
2019-03-29T02:18:08.872Z,99.90
2019-03-29T02:20:37.320Z,99.90
2019-03-29T02:23:06.018Z,99.90
2019-03-29T02:25:34.473Z,99.90
2019-03-29T02:28:03.230Z,99.90
2019-03-29T02:30:32.247Z,99.90
2019-03-29T02:33:01.420Z,99.90
2019-03-29T02:35:29.886Z,99.90
2019-03-29T02:38:00.060Z,99.90
2019-03-29T02:40:28.493Z,99.90
2019-03-29T02:42:56.952Z,99.90
2019-03-29T02:45:25.394Z,99.90
2019-03-29T02:47:54.189Z,99.90
2019-03-29T02:50:22.626Z,99.90
2019-03-29T02:52:51.087Z,99.90
2019-03-29T02:55:19.530Z,99.90
2019-03-29T02:57:48.006Z,99.90
2019-03-29T03:00:17.633Z,99.90
2019-03-29T03:02:46.077Z,99.90
2019-03-29T03:05:14.590Z,99.90
2019-03-29T03:07:43.062Z,99.90
2019-03-29T03:10:14.332Z,99.90
2019-03-29T03:12:42.824Z,99.90
2019-03-29T03:15:11.979Z,99.90
2019-03-29T03:17:40.915Z,99.90
2019-03-29T03:20:15.056Z,99.90
2019-03-29T03:23:07.014Z,99.90
2019-03-29T03:25:35.471Z,99.90
2019-03-29T03:28:03.978Z,99.90
2019-03-29T03:30:32.707Z,99.90
2019-03-29T03:33:01.145Z,99.90
2019-03-29T03:35:29.592Z,99.90
2019-03-29T03:37:58.284Z,99.90
2019-03-29T03:40:26.997Z,99.90
2019-03-29T03:42:55.434Z,99.90
2019-03-29T03:45:23.901Z,99.90
2019-03-29T03:47:52.593Z,99.90
2019-03-29T03:50:36.408Z,99.90
2019-03-29T03:53:05.226Z,99.90
2019-03-29T03:55:35.665Z,99.90
2019-03-29T03:58:11.486Z,99.90
2019-03-29T04:00:54.006Z,99.90
2019-03-29T04:03:23.076Z,99.90
2019-03-29T04:05:51.577Z,99.90
2019-03-29T04:08:20.109Z,99.90
2019-03-29T04:10:48.551Z,99.90
2019-03-29T04:13:17.145Z,99.90
2019-03-29T04:15:45.651Z,99.90
2019-03-29T04:18:16.116Z,99.90
2019-03-29T04:20:44.812Z,99.90
2019-03-29T04:23:13.384Z,99.90
2019-03-29T04:25:41.876Z,99.90
2019-03-29T04:28:10.329Z,99.90
2019-03-29T04:30:39.036Z,99.90
2019-03-29T04:33:11.105Z,99.90
2019-03-29T04:35:37.645Z,99.90
2019-03-29T04:38:06.245Z,99.90
2019-03-29T04:40:34.908Z,99.90
2019-03-29T04:43:06.376Z,99.90
2019-03-29T04:45:34.826Z,99.90
2019-03-29T04:48:09.525Z,99.90
2019-03-29T04:50:56.009Z,99.90
2019-03-29T04:53:24.710Z,99.90
2019-03-29T04:55:53.165Z,99.90
2019-03-29T04:58:21.873Z,99.90
2019-03-29T05:00:50.577Z,99.90
2019-03-29T05:03:19.017Z,99.90
2019-03-29T05:05:47.474Z,99.90
2019-03-29T05:08:15.907Z,99.90
2019-03-29T05:10:44.356Z,99.90
2019-03-29T05:13:12.792Z,99.90
2019-03-29T05:15:41.246Z,99.90
2019-03-29T05:18:23.553Z,99.90
2019-03-29T05:20:52.298Z,99.90
2019-03-29T05:23:20.997Z,99.90
2019-03-29T05:25:49.462Z,99.90
2019-03-29T05:28:17.896Z,99.90
2019-03-29T05:30:46.361Z,99.90
2019-03-29T05:33:15.065Z,99.90
2019-03-29T05:35:43.496Z,99.90
2019-03-29T05:38:11.955Z,99.90
2019-03-29T05:40:40.398Z,99.90
2019-03-29T05:43:09.101Z,99.90
2019-03-29T05:45:37.922Z,99.90
2019-03-29T05:48:06.383Z,99.90
2019-03-29T05:50:36.843Z,99.90
2019-03-29T05:53:05.260Z,99.90
2019-03-29T05:55:35.119Z,99.90
2019-03-29T05:58:03.845Z,99.90
2019-03-29T06:00:32.529Z,99.90
2019-03-29T06:03:00.986Z,99.90
2019-03-29T06:05:29.420Z,99.90
2019-03-29T06:07:57.875Z,99.90
2019-03-29T06:10:26.316Z,99.90
2019-03-29T06:13:10.044Z,99.90
2019-03-29T06:15:38.480Z,99.90
2019-03-29T06:18:06.910Z,99.90
2019-03-29T06:20:35.609Z,99.90
2019-03-29T06:23:04.126Z,99.90
2019-03-29T06:25:32.838Z,99.90
2019-03-29T06:28:02.538Z,99.90
2019-03-29T06:30:31.635Z,99.90
2019-03-29T06:33:00.077Z,99.90
2019-03-29T06:35:31.605Z,99.90
2019-03-29T06:38:00.889Z,99.90
2019-03-29T06:40:29.736Z,99.90
2019-03-29T06:42:59.497Z,99.90
2019-03-29T06:45:48.045Z,99.90
2019-03-29T06:48:12.617Z,99.90
2019-03-29T06:50:41.345Z,99.90
2019-03-29T06:53:09.849Z,99.90
2019-03-29T06:55:38.286Z,99.90
2019-03-29T06:58:06.741Z,99.90
2019-03-29T07:00:35.243Z,99.90
2019-03-29T07:03:03.951Z,99.90
2019-03-29T07:05:32.403Z,99.90
2019-03-29T07:08:01.149Z,99.90
2019-03-29T07:10:29.606Z,99.90
2019-03-29T07:12:58.463Z,99.90
2019-03-29T07:15:28.644Z,99.90
2019-03-29T07:17:57.606Z,99.90
2019-03-29T07:20:26.042Z,99.90
2019-03-29T07:23:09.580Z,99.90
2019-03-29T07:25:38.101Z,99.90
2019-03-29T07:28:06.533Z,99.90
2019-03-29T07:30:35.256Z,99.90
2019-03-29T07:33:03.686Z,99.90
2019-03-29T07:35:32.143Z,99.90
2019-03-29T07:38:00.573Z,99.90
2019-03-29T07:40:29.302Z,99.90
2019-03-29T07:42:57.748Z,99.90
2019-03-29T07:45:26.204Z,99.90
2019-03-29T07:47:54.648Z,99.90
2019-03-29T07:50:23.371Z,99.90
2019-03-29T07:52:51.812Z,99.90
2019-03-29T07:55:20.353Z,99.90
2019-03-29T07:57:48.797Z,99.90
2019-03-29T08:00:20.284Z,99.90
2019-03-29T08:02:47.750Z,99.90
2019-03-29T08:05:17.954Z,99.90
2019-03-29T08:07:46.675Z,99.90
2019-03-29T08:10:25.742Z,99.90
2019-03-29T08:12:45.472Z,99.90
2019-03-29T08:15:14.580Z,99.90
2019-03-29T08:17:43.040Z,99.90
2019-03-29T08:20:38.182Z,99.90
2019-03-29T08:22:42.101Z,99.90
2019-03-29T08:25:10.551Z,99.90
2019-03-29T08:27:45.073Z,99.90
2019-03-29T08:30:13.688Z,99.90
2019-03-29T08:32:42.125Z,99.90
2019-03-29T08:35:10.586Z,99.90
2019-03-29T08:37:39.022Z,99.90
2019-03-29T08:40:07.789Z,99.90
2019-03-29T08:42:36.282Z,99.90
2019-03-29T08:45:06.433Z,99.90
2019-03-29T08:47:35.276Z,99.90
2019-03-29T08:50:05.720Z,99.90
2019-03-29T08:52:34.499Z,99.90
2019-03-29T08:55:04.944Z,99.90
2019-03-29T08:57:33.665Z,99.90
2019-03-29T09:00:02.354Z,99.70
2019-03-29T09:02:30.835Z,97.30
2019-03-29T09:04:59.604Z,96.60
2019-03-29T09:07:43.542Z,92.90
2019-03-29T09:09:59.941Z,91.60
2019-03-29T09:12:28.405Z,90.30
2019-03-29T09:14:56.856Z,82.20
2019-03-29T09:17:25.336Z,67.50
2019-03-29T09:19:53.783Z,57.70
2019-03-29T09:22:22.494Z,54.10
2019-03-29T09:24:50.958Z,50.50
2019-03-29T09:27:19.814Z,47.60
2019-03-29T09:29:48.350Z,45.70
2019-03-29T09:32:16.788Z,44.90
2019-03-29T09:34:45.249Z,43.20
2019-03-29T09:37:14.030Z,40.90
2019-03-29T09:39:42.496Z,42.70
2019-03-29T09:42:10.939Z,42.90
2019-03-29T09:44:39.414Z,43.90
2019-03-29T09:47:07.844Z,43.80
2019-03-29T09:49:36.291Z,45.00
2019-03-29T09:52:04.752Z,46.70
2019-03-29T09:54:33.472Z,46.90
2019-03-29T09:57:02.014Z,47.50
2019-03-29T09:59:30.455Z,49.60
2019-03-29T10:01:59.192Z,50.50
2019-03-29T10:04:27.726Z,51.10
2019-03-29T10:06:56.227Z,49.90
2019-03-29T10:09:24.997Z,50.80
2019-03-29T10:11:53.458Z,52.00
2019-03-29T10:14:22.153Z,53.80
2019-03-29T10:16:50.622Z,55.00
2019-03-29T10:19:19.058Z,54.20
2019-03-29T10:21:47.526Z,52.90
2019-03-29T10:24:15.970Z,52.60
2019-03-29T10:26:44.420Z,51.50
2019-03-29T10:29:12.957Z,52.40
2019-03-29T10:31:41.658Z,49.80
2019-03-29T10:34:10.364Z,50.50
2019-03-29T10:36:39.105Z,53.30
2019-03-29T10:39:14.084Z,54.40
2019-03-29T10:41:42.797Z,53.50
2019-03-29T10:44:11.506Z,53.30
2019-03-29T10:46:39.958Z,54.30
2019-03-29T10:49:08.408Z,54.50
2019-03-29T10:51:38.313Z,52.10
2019-03-29T10:54:07.086Z,54.30
2019-03-29T10:56:35.536Z,52.70
2019-03-29T10:59:04.095Z,53.70
2019-03-29T11:01:32.535Z,54.50
2019-03-29T11:04:01.242Z,54.30
2019-03-29T11:06:30.478Z,53.70
2019-03-29T11:08:58.918Z,56.90
2019-03-29T11:11:27.378Z,55.20
2019-03-29T11:13:56.870Z,56.40
2019-03-29T11:16:25.459Z,56.50
2019-03-29T11:18:53.946Z,55.40
2019-03-29T11:21:22.393Z,56.50
2019-03-29T11:23:50.837Z,55.50
2019-03-29T11:26:19.300Z,57.30
2019-03-29T11:28:47.747Z,55.90
2019-03-29T11:31:17.788Z,56.10
2019-03-29T11:33:46.229Z,55.10
2019-03-29T11:36:14.889Z,56.00
2019-03-29T11:38:43.590Z,55.00
2019-03-29T11:41:12.043Z,53.60
2019-03-29T11:43:40.503Z,55.30
2019-03-29T11:46:08.946Z,53.80
2019-03-29T11:48:37.403Z,54.50
2019-03-29T11:51:18.618Z,54.30
2019-03-29T11:53:36.033Z,53.80
2019-03-29T11:56:04.476Z,53.10
2019-03-29T11:58:33.194Z,51.90
2019-03-29T12:01:01.638Z,54.00
2019-03-29T12:03:34.396Z,53.50
2019-03-29T12:06:02.861Z,52.10
2019-03-29T12:08:31.578Z,50.10
2019-03-29T12:11:00.026Z,50.30
2019-03-29T12:13:40.462Z,49.10
2019-03-29T12:15:58.966Z,49.00
2019-03-29T12:18:27.404Z,50.20
2019-03-29T12:20:56.782Z,52.70
2019-03-29T12:23:25.225Z,51.60
2019-03-29T12:25:53.675Z,51.40
2019-03-29T12:28:22.116Z,50.60
2019-03-29T12:30:50.575Z,48.80
2019-03-29T12:33:19.275Z,52.60
2019-03-29T12:35:47.748Z,53.20
2019-03-29T12:38:16.197Z,49.90
2019-03-29T12:40:45.256Z,50.30
2019-03-29T12:43:13.977Z,49.40
2019-03-29T12:45:42.427Z,48.90
2019-03-29T12:48:11.147Z,49.10
2019-03-29T12:50:39.590Z,48.90
2019-03-29T12:53:08.051Z,48.50
2019-03-29T12:55:36.849Z,48.60
2019-03-29T12:58:05.368Z,47.00
2019-03-29T13:00:33.952Z,48.30
2019-03-29T13:03:02.432Z,48.00
2019-03-29T13:05:30.864Z,48.50
2019-03-29T13:07:59.647Z,47.40
2019-03-29T13:10:28.361Z,45.00
2019-03-29T13:13:00.219Z,45.30
2019-03-29T13:15:29.697Z,45.10
2019-03-29T13:17:58.394Z,45.10
2019-03-29T13:20:26.853Z,47.60
2019-03-29T13:22:55.300Z,48.60
2019-03-29T13:25:24.051Z,48.20
2019-03-29T13:27:55.429Z,49.00
2019-03-29T13:30:22.867Z,49.20
2019-03-29T13:32:51.311Z,48.50
2019-03-29T13:35:19.765Z,48.10
2019-03-29T13:37:48.209Z,47.90
2019-03-29T13:40:25.220Z,46.20
2019-03-29T13:42:53.911Z,47.20
2019-03-29T13:45:22.632Z,45.70
2019-03-29T13:47:51.334Z,43.90
2019-03-29T13:50:19.777Z,43.10
2019-03-29T13:52:48.254Z,43.30
2019-03-29T13:55:17.581Z,43.00
2019-03-29T13:57:46.047Z,42.30
2019-03-29T14:00:14.491Z,39.80
2019-03-29T14:02:42.946Z,38.50
2019-03-29T14:05:11.521Z,36.10
2019-03-29T14:07:40.251Z,35.40
2019-03-29T14:10:10.129Z,33.50
2019-03-29T14:12:39.814Z,32.60
2019-03-29T14:15:11.324Z,31.70
2019-03-29T14:17:39.768Z,30.50
2019-03-29T14:20:08.666Z,29.70
2019-03-29T14:22:37.100Z,28.70
2019-03-29T14:25:07.801Z,29.90
2019-03-29T14:27:36.490Z,28.70
2019-03-29T14:30:07.491Z,29.60
2019-03-29T14:32:35.918Z,29.10
2019-03-29T14:35:07.286Z,29.20
2019-03-29T14:37:35.728Z,28.40
2019-03-29T14:40:06.797Z,28.20
2019-03-29T14:42:35.302Z,28.60
2019-03-29T14:45:06.554Z,28.60
2019-03-29T14:47:41.359Z,29.00
2019-03-29T14:50:09.408Z,30.00
2019-03-29T14:52:37.934Z,30.70
2019-03-29T14:55:06.914Z,32.10
2019-03-29T14:57:35.636Z,32.40
2019-03-29T15:00:06.837Z,34.20
2019-03-29T15:02:36.865Z,35.20
2019-03-29T15:05:07.153Z,36.50
2019-03-29T15:07:36.499Z,36.10
2019-03-29T15:10:06.786Z,36.70
2019-03-29T15:12:35.253Z,37.60
2019-03-29T15:15:07.100Z,39.30
2019-03-29T15:17:35.808Z,39.50
2019-03-29T15:20:06.020Z,39.40
2019-03-29T15:22:34.716Z,40.40
2019-03-29T15:25:03.236Z,40.50
2019-03-29T15:27:31.676Z,41.40
2019-03-29T15:30:00.499Z,41.30
2019-03-29T15:32:29.047Z,41.70
2019-03-29T15:35:01.101Z,40.60
2019-03-29T15:37:29.543Z,39.80
2019-03-29T15:39:58.469Z,39.70
2019-03-29T15:42:27.170Z,39.70
2019-03-29T15:44:55.877Z,40.40
2019-03-29T15:47:24.572Z,41.40
2019-03-29T15:49:56.242Z,41.50
2019-03-29T15:52:23.474Z,40.10
2019-03-29T15:54:52.925Z,40.40
2019-03-29T15:57:23.618Z,41.20
2019-03-29T15:59:52.311Z,42.20
2019-03-29T16:02:20.773Z,42.80
2019-03-29T16:04:49.211Z,42.40
2019-03-29T16:07:17.921Z,42.60
2019-03-29T16:09:46.348Z,42.70
2019-03-29T16:12:15.057Z,42.40
2019-03-29T16:14:43.500Z,43.70
2019-03-29T16:17:11.969Z,43.80
2019-03-29T16:19:40.668Z,44.60
2019-03-29T16:22:09.125Z,43.80
2019-03-29T16:24:37.833Z,43.80
2019-03-29T16:27:06.302Z,44.00
2019-03-29T16:29:34.736Z,44.10
2019-03-29T16:32:03.176Z,44.40
2019-03-29T16:34:31.630Z,45.00
2019-03-29T16:37:00.078Z,44.60
2019-03-29T16:39:28.790Z,45.60
2019-03-29T16:41:57.482Z,45.20
2019-03-29T16:44:25.934Z,45.40
2019-03-29T16:46:54.394Z,45.60
2019-03-29T16:49:22.841Z,45.70
2019-03-29T16:51:51.297Z,46.90
2019-03-29T16:54:19.801Z,46.80
2019-03-29T16:56:48.493Z,46.40
2019-03-29T16:59:16.961Z,46.30
2019-03-29T17:01:45.402Z,46.90
2019-03-29T17:04:13.848Z,48.20
2019-03-29T17:06:45.041Z,48.10
2019-03-29T17:09:13.492Z,48.20
2019-03-29T17:11:41.973Z,49.60
2019-03-29T17:14:10.407Z,49.90
2019-03-29T17:16:39.169Z,50.80
2019-03-29T17:19:07.608Z,50.70
2019-03-29T17:21:36.069Z,50.80
2019-03-29T17:24:04.585Z,51.20
2019-03-29T17:26:33.297Z,51.90
2019-03-29T17:29:03.038Z,52.30
2019-03-29T17:31:32.196Z,52.70
2019-03-29T17:34:00.887Z,53.50
2019-03-29T17:36:29.595Z,53.60
2019-03-29T17:38:58.314Z,53.70
2019-03-29T17:41:29.930Z,54.10
2019-03-29T17:43:58.651Z,54.30
2019-03-29T17:46:27.093Z,55.10
2019-03-29T17:48:55.810Z,54.70
2019-03-29T17:51:24.500Z,55.40
2019-03-29T17:53:52.965Z,55.40
2019-03-29T17:56:24.489Z,55.90
2019-03-29T17:58:59.081Z,56.70
2019-03-29T18:01:27.873Z,57.40
2019-03-29T18:03:56.575Z,57.70
2019-03-29T18:06:25.034Z,58.30
2019-03-29T18:08:53.474Z,59.00
2019-03-29T18:11:21.945Z,59.10
2019-03-29T18:13:50.394Z,60.40
2019-03-29T18:16:29.858Z,60.60
2019-03-29T18:18:49.017Z,62.30
2019-03-29T18:21:17.476Z,61.90
2019-03-29T18:23:45.917Z,62.90
2019-03-29T18:26:14.638Z,63.50
2019-03-29T18:28:43.084Z,64.80
2019-03-29T18:31:11.527Z,65.20
2019-03-29T18:33:40.156Z,65.50
2019-03-29T18:36:09.042Z,66.90
2019-03-29T18:38:38.833Z,66.90
2019-03-29T18:41:07.525Z,67.10
2019-03-29T18:43:36.015Z,68.60
2019-03-29T18:46:04.620Z,68.60
2019-03-29T18:48:33.086Z,69.00
2019-03-29T18:51:01.526Z,70.00
2019-03-29T18:53:30.004Z,72.30
2019-03-29T18:55:58.720Z,72.60
2019-03-29T18:58:27.160Z,73.00
2019-03-29T19:00:55.624Z,73.40
2019-03-29T19:03:24.139Z,73.50
2019-03-29T19:05:52.593Z,74.80
2019-03-29T19:08:21.298Z,78.50
2019-03-29T19:10:49.830Z,77.90
2019-03-29T19:13:18.534Z,77.80
2019-03-29T19:15:47.907Z,78.10
2019-03-29T19:18:16.403Z,78.60
2019-03-29T19:20:45.140Z,79.90
2019-03-29T19:23:13.578Z,81.00
2019-03-29T19:25:42.275Z,82.60
2019-03-29T19:28:10.733Z,82.20
2019-03-29T19:30:39.231Z,85.50
2019-03-29T19:33:07.737Z,88.70
2019-03-29T19:35:36.196Z,90.70
2019-03-29T19:38:04.796Z,90.60
2019-03-29T19:40:33.238Z,91.40
2019-03-29T19:43:04.940Z,91.90
2019-03-29T19:45:34.522Z,92.50
2019-03-29T19:48:03.141Z,92.30
2019-03-29T19:50:31.584Z,91.60
2019-03-29T19:53:00.062Z,91.20
2019-03-29T19:55:28.617Z,92.10
2019-03-29T19:57:57.458Z,91.60
2019-03-29T20:00:38.033Z,91.00
2019-03-29T20:03:06.450Z,92.00
2019-03-29T20:05:35.241Z,92.00
2019-03-29T20:08:03.952Z,93.00
2019-03-29T20:10:32.667Z,92.90
2019-03-29T20:13:01.281Z,92.50
2019-03-29T20:15:29.780Z,92.40
2019-03-29T20:17:58.240Z,92.70
2019-03-29T20:20:27.053Z,93.10
2019-03-29T20:22:57.494Z,93.60
2019-03-29T20:25:26.093Z,92.90
2019-03-29T20:27:58.536Z,93.10
2019-03-29T20:30:27.867Z,93.10
2019-03-29T20:32:56.386Z,94.70
2019-03-29T20:35:24.824Z,95.40
2019-03-29T20:37:53.293Z,95.40
2019-03-29T20:40:22.068Z,95.40
2019-03-29T20:42:50.829Z,95.90
2019-03-29T20:45:19.386Z,96.00
2019-03-29T20:47:51.612Z,96.40
2019-03-29T20:50:17.990Z,95.40
2019-03-29T20:53:04.634Z,97.00
2019-03-29T20:55:33.125Z,98.40
2019-03-29T20:58:01.628Z,98.40
2019-03-29T21:00:30.092Z,99.90
2019-03-29T21:02:58.538Z,99.90
2019-03-29T21:05:27.229Z,99.90
2019-03-29T21:07:55.948Z,99.90
2019-03-29T21:10:24.633Z,99.90
2019-03-29T21:12:53.114Z,99.90
2019-03-29T21:15:21.870Z,99.90
2019-03-29T21:17:56.760Z,99.90
2019-03-29T21:20:20.501Z,99.90
2019-03-29T21:22:58.204Z,99.90
2019-03-29T21:25:26.905Z,99.90
2019-03-29T21:27:55.365Z,99.90
2019-03-29T21:30:23.867Z,99.90
2019-03-29T21:32:52.308Z,99.90
2019-03-29T21:35:20.767Z,99.90
2019-03-29T21:37:49.200Z,99.90
2019-03-29T21:40:17.647Z,99.90
2019-03-29T21:42:46.091Z,99.90
2019-03-29T21:45:28.083Z,99.90
2019-03-29T21:48:01.461Z,99.90
2019-03-29T21:50:18.280Z,99.90
2019-03-29T21:52:46.714Z,99.90
2019-03-29T21:55:15.164Z,99.90
2019-03-29T21:57:43.643Z,99.90
2019-03-29T22:00:18.673Z,99.90
2019-03-29T22:02:47.385Z,99.90
2019-03-29T22:05:16.321Z,99.90
2019-03-29T22:07:44.758Z,99.90
2019-03-29T22:10:13.641Z,99.90
2019-03-29T22:12:43.182Z,99.90
2019-03-29T22:15:12.373Z,99.90
2019-03-29T22:17:40.829Z,99.90
2019-03-29T22:20:10.201Z,99.90
2019-03-29T22:22:38.914Z,99.90
2019-03-29T22:25:08.960Z,99.90
2019-03-29T22:27:37.579Z,99.90
2019-03-29T22:30:10.373Z,99.90
2019-03-29T22:32:38.884Z,99.90
2019-03-29T22:35:09.326Z,99.90
2019-03-29T22:37:38.102Z,99.90
2019-03-29T22:40:10.806Z,99.90
2019-03-29T22:42:39.273Z,99.90
2019-03-29T22:45:08.504Z,99.90
2019-03-29T22:47:36.933Z,99.90
2019-03-29T22:50:08.810Z,99.90
2019-03-29T22:52:37.489Z,99.90
2019-03-29T22:55:08.327Z,99.90
2019-03-29T22:57:36.761Z,99.90
2019-03-29T23:00:11.477Z,99.90
2019-03-29T23:02:39.913Z,99.90
2019-03-29T23:05:08.774Z,99.90
2019-03-29T23:07:37.221Z,99.90
2019-03-29T23:10:07.228Z,99.90
2019-03-29T23:12:35.668Z,99.90
2019-03-29T23:15:05.855Z,99.90
2019-03-29T23:17:34.336Z,99.90
2019-03-29T23:20:02.767Z,99.90
2019-03-29T23:22:31.477Z,99.90
2019-03-29T23:24:59.913Z,99.90
2019-03-29T23:27:28.373Z,99.90
2019-03-29T23:29:56.813Z,99.90
2019-03-29T23:32:25.267Z,99.90
2019-03-29T23:34:54.002Z,99.90
2019-03-29T23:37:22.452Z,99.90
2019-03-29T23:39:50.890Z,99.90
2019-03-29T23:42:19.609Z,99.90
2019-03-29T23:44:48.060Z,99.90
2019-03-29T23:47:16.500Z,99.90
2019-03-29T23:49:44.968Z,99.90
2019-03-29T23:52:13.656Z,99.90
2019-03-29T23:54:42.380Z,99.90
2019-03-29T23:57:10.821Z,99.90
2019-03-29T23:59:39.275Z,99.90
